Time;durP1;ratioP1;P1;durP2;ratioP2;P2;SDS_P1;SDS_P2;PMS_P1;PMS_P2;Temp;Humidity;BMP_temperature;BMP_pressure;BME280_temperature;BME280_humidity;BME280_pressure;Samples;Min_cycle;Max_cycle;Signal;HPM_P1;HPM_P2
2023/09/25 00:01:49;;;;;;;5.50;2.70;;;;;;;18.41;56.44;102141.84;5032339;28;20488;-75
2023/09/25 00:04:15;;;;;;;4.28;2.60;;;;;;;18.52;56.24;102143.59;5032070;28;20064;-75
2023/09/25 00:06:43;;;;;;;4.13;2.55;;;;;;;18.29;57.10;102153.25;5031739;28;20037;-75
2023/09/25 00:09:14;;;;;;;5.88;2.85;;;;;;;18.47;56.19;102142.72;5034693;28;20033;-75
2023/09/25 00:11:39;;;;;;;5.80;2.58;;;;;;;18.45;56.20;102147.09;5033048;28;20065;-75
2023/09/25 00:14:20;;;;;;;4.07;2.42;;;;;;;18.53;56.26;102144.47;5032511;28;20060;-75
2023/09/25 00:16:45;;;;;;;4.55;2.70;;;;;;;18.52;56.14;102151.53;5030957;28;20033;-75
2023/09/25 00:19:10;;;;;;;6.88;2.50;;;;;;;18.56;56.01;102149.78;5032747;28;20103;-74
2023/09/25 00:21:36;;;;;;;5.13;2.63;;;;;;;18.38;56.54;102152.38;5032486;28;20061;-75
2023/09/25 00:24:10;;;;;;;5.57;2.70;;;;;;;18.39;56.34;102149.75;5033193;28;20029;-77
2023/09/25 00:26:35;;;;;;;4.78;2.80;;;;;;;18.45;56.26;102154.16;5030784;28;20454;-75
2023/09/25 00:29:04;;;;;;;5.85;2.53;;;;;;;18.44;56.40;102147.97;5032786;28;20064;-75
2023/09/25 00:31:38;;;;;;;4.72;2.58;;;;;;;18.41;56.17;102145.34;5032088;28;20036;-74
2023/09/25 00:34:06;;;;;;;3.88;2.60;;;;;;;18.48;56.23;102143.59;5032470;28;20091;-74
2023/09/25 00:36:38;;;;;;;5.28;2.70;;;;;;;18.44;56.66;102136.53;5031921;28;20033;-74
2023/09/25 00:39:06;;;;;;;4.43;2.58;;;;;;;18.45;56.33;102133.03;5031347;28;20048;-74
2023/09/25 00:41:34;;;;;;;4.78;2.53;;;;;;;18.45;56.47;102125.09;5031753;28;20045;-75
2023/09/25 00:44:00;;;;;;;5.35;2.50;;;;;;;18.39;56.43;102131.25;5032526;28;20061;-75
2023/09/25 00:46:25;;;;;;;4.35;2.30;;;;;;;18.42;56.58;102120.69;5032065;28;20071;-74
2023/09/25 00:48:51;;;;;;;6.00;2.58;;;;;;;18.34;56.42;102126.84;5032239;28;20442;-74
2023/09/25 00:51:17;;;;;;;5.88;2.47;;;;;;;18.35;56.43;102121.59;5031904;28;20395;-74
2023/09/25 00:53:45;;;;;;;4.15;2.67;;;;;;;18.28;56.90;102116.28;5031538;28;20044;-75
2023/09/25 00:56:16;;;;;;;4.18;2.60;;;;;;;18.35;56.35;102118.94;5032066;28;20061;-75
2023/09/25 00:58:41;;;;;;;5.55;2.40;;;;;;;18.41;56.40;102121.59;5031310;28;20045;-75
2023/09/25 01:01:11;;;;;;;6.53;2.80;;;;;;;18.27;56.63;102125.97;5031762;28;20116;-75
2023/09/25 01:03:40;;;;;;;8.40;2.40;;;;;;;18.24;56.58;102124.19;5031844;28;20037;-74
2023/09/25 01:06:05;;;;;;;6.07;2.40;;;;;;;18.06;57.36;102128.53;5031864;28;20406;-75
2023/09/25 01:08:30;;;;;;;4.20;2.38;;;;;;;18.28;56.42;102122.44;5030197;28;20037;-75
2023/09/25 01:10:57;;;;;;;6.45;2.53;;;;;;;18.25;56.42;102133.00;5029836;28;20041;-74
2023/09/25 01:13:23;;;;;;;6.60;2.40;;;;;;;18.28;56.20;102126.84;5031128;28;20045;-75
2023/09/25 01:15:57;;;;;;;9.20;2.42;;;;;;;18.09;56.93;102129.44;5031399;28;20033;-74
2023/09/25 01:18:22;;;;;;;3.88;2.55;;;;;;;17.94;57.32;102128.50;5031150;28;20526;-74
2023/09/25 01:20:49;;;;;;;5.57;2.55;;;;;;;18.05;57.08;102129.44;5031312;28;20053;-75
2023/09/25 01:23:15;;;;;;;4.07;2.30;;;;;;;18.09;56.79;102124.16;5031536;28;20083;-75
2023/09/25 01:25:40;;;;;;;5.78;2.45;;;;;;;18.16;56.32;102119.78;5030995;28;20501;-75
2023/09/25 01:28:09;;;;;;;4.55;2.55;;;;;;;17.95;57.42;102131.16;5031328;28;20033;-75
2023/09/25 01:30:38;;;;;;;4.25;2.58;;;;;;;17.82;57.56;102124.06;5031145;28;20402;-75
2023/09/25 01:33:04;;;;;;;5.60;2.65;;;;;;;17.99;56.87;102121.50;5031347;28;20045;-74
2023/09/25 01:35:29;;;;;;;4.63;2.47;;;;;;;18.01;56.85;102125.00;5031571;28;20029;-75
2023/09/25 01:38:00;;;;;;;4.10;2.38;;;;;;;17.95;56.97;102119.72;5030914;28;20041;-75
2023/09/25 01:40:26;;;;;;;6.47;2.60;;;;;;;17.92;56.97;102109.16;5031402;28;20168;-74
2023/09/25 01:42:51;;;;;;;6.00;2.30;;;;;;;17.97;57.00;102117.97;5031921;28;20045;-74
2023/09/25 01:45:19;;;;;;;3.53;2.40;;;;;;;18.08;56.63;102113.59;5031634;28;20026;-75
2023/09/25 01:47:50;;;;;;;4.35;2.35;;;;;;;17.99;57.37;102113.59;5030688;28;20172;-75
2023/09/25 01:50:17;;;;;;;6.30;2.50;;;;;;;18.08;57.01;102116.25;5030945;28;20037;-75
2023/09/25 01:52:43;;;;;;;5.70;2.70;;;;;;;18.01;57.28;102115.34;5030803;28;20120;-75
2023/09/25 01:55:11;;;;;;;4.00;2.60;;;;;;;18.04;56.92;102123.28;5031288;28;20060;-75
2023/09/25 01:57:37;;;;;;;3.88;2.40;;;;;;;17.63;58.36;102120.47;5030029;28;20038;-74
2023/09/25 02:00:07;;;;;;;4.00;2.40;;;;;;;17.77;58.07;102110.88;5031542;28;20636;-75
2023/09/25 02:02:42;;;;;;;4.53;2.58;;;;;;;17.63;57.97;102115.22;5030736;28;20735;-74
2023/09/25 02:05:11;;;;;;;5.20;2.40;;;;;;;17.90;57.34;102106.53;5030050;28;20025;-75
2023/09/25 02:07:36;;;;;;;3.72;2.40;;;;;;;17.78;57.79;102106.47;5030860;28;20042;-74
2023/09/25 02:10:02;;;;;;;5.15;2.60;;;;;;;17.70;57.90;102098.53;5021298;28;20450;-75
2023/09/25 02:12:27;;;;;;;4.18;2.55;;;;;;;17.94;57.25;102096.84;5031098;28;20040;-77
2023/09/25 02:14:56;;;;;;;3.63;2.45;;;;;;;17.72;58.16;102090.63;5029412;28;20029;-75
2023/09/25 02:17:22;;;;;;;4.18;2.50;;;;;;;17.73;58.08;102082.75;5029796;28;20107;-75
2023/09/25 02:19:47;;;;;;;5.45;2.60;;;;;;;17.84;57.38;102070.47;5030313;28;20534;-75
2023/09/25 02:22:12;;;;;;;5.47;2.80;;;;;;;17.80;57.68;102070.44;5030701;28;20048;-74
2023/09/25 02:24:41;;;;;;;4.80;2.75;;;;;;;17.87;57.58;102068.72;5030454;28;20510;-74
2023/09/25 02:27:09;;;;;;;4.05;2.40;;;;;;;17.95;57.08;102073.13;5030995;28;20053;-74
2023/09/25 02:29:35;;;;;;;4.40;2.45;;;;;;;17.93;57.24;102074.00;5030475;28;20030;-74
2023/09/25 02:32:15;;;;;;;6.32;2.83;;;;;;;17.85;57.11;102079.25;5030518;28;20042;-77
2023/09/25 02:34:41;;;;;;;5.20;2.65;;;;;;;17.75;58.26;102074.81;5030102;28;21443;-77
2023/09/25 02:37:09;;;;;;;4.68;2.70;;;;;;;17.86;57.92;102077.50;5029205;28;20527;-74
2023/09/25 02:39:35;;;;;;;4.63;2.47;;;;;;;17.76;57.79;102082.72;5028546;28;20057;-74
2023/09/25 02:42:00;;;;;;;4.90;2.50;;;;;;;17.62;58.10;102084.47;5031226;28;20507;-74
2023/09/25 02:44:29;;;;;;;5.50;2.67;;;;;;;17.91;57.29;102066.06;5030851;28;20399;-74
2023/09/25 02:46:54;;;;;;;5.25;2.50;;;;;;;17.79;58.06;102080.13;5031075;28;20034;-74
2023/09/25 02:49:20;;;;;;;4.65;2.58;;;;;;;17.87;57.83;102074.84;5031478;28;20116;-75
2023/09/25 02:51:45;;;;;;;6.78;2.75;;;;;;;17.74;58.09;102075.72;5030368;28;20044;-75
2023/09/25 02:54:13;;;;;;;4.78;2.70;;;;;;;17.50;58.93;102070.31;5030838;28;20117;-75
2023/09/25 02:56:39;;;;;;;5.78;2.60;;;;;;;17.57;58.80;102074.72;5030426;28;20041;-75
2023/09/25 02:59:04;;;;;;;3.97;2.63;;;;;;;17.69;58.43;102074.78;5030176;28;20098;-75
2023/09/25 03:01:32;;;;;;;5.78;2.67;;;;;;;17.69;58.35;102070.41;5030733;28;20040;-75
2023/09/25 03:04:00;;;;;;;5.20;2.60;;;;;;;17.84;57.99;102067.81;5031217;28;20172;-74
2023/09/25 03:06:26;;;;;;;4.80;2.60;;;;;;;17.47;59.08;102070.28;5031132;28;20037;-75
2023/09/25 03:08:51;;;;;;;8.65;2.78;;;;;;;17.48;58.92;102078.22;5031763;28;20395;-75
2023/09/25 03:11:19;;;;;;;4.78;2.65;;;;;;;17.59;58.78;102068.59;5034197;28;20372;-75
2023/09/25 03:13:45;;;;;;;4.57;2.60;;;;;;;17.71;58.36;102065.13;5034438;28;20033;-75
2023/09/25 03:16:17;;;;;;;5.20;2.70;;;;;;;17.56;59.10;102063.31;5035058;28;20056;-75
2023/09/25 03:18:46;;;;;;;6.28;2.72;;;;;;;17.68;58.48;102066.03;5034016;28;20041;-78
2023/09/25 03:21:13;;;;;;;7.85;2.90;;;;;;;17.48;59.36;102075.56;5034581;28;20033;-75
2023/09/25 03:23:45;;;;;;;5.38;2.88;;;;;;;17.62;58.98;102070.41;5034213;28;20038;-75
2023/09/25 03:26:14;;;;;;;6.18;2.90;;;;;;;17.48;59.00;102069.41;5034890;28;20093;-75
2023/09/25 03:28:49;;;;;;;5.75;3.00;;;;;;;17.63;58.79;102066.84;5034499;28;20037;-75
2023/09/25 03:31:15;;;;;;;5.22;2.60;;;;;;;17.48;59.19;102067.66;5034686;28;20033;-74
2023/09/25 03:33:44;;;;;;;5.38;2.65;;;;;;;17.64;58.25;102074.78;5033820;28;20055;-75
2023/09/25 03:36:13;;;;;;;5.43;2.78;;;;;;;17.63;58.38;102073.00;5034663;28;20040;-77
2023/09/25 03:38:41;;;;;;;6.00;2.72;;;;;;;17.59;58.50;102075.59;5033477;28;20033;-75
2023/09/25 03:41:16;;;;;;;5.47;2.60;;;;;;;17.56;58.68;102081.78;5033673;28;20037;-75
2023/09/25 03:43:50;;;;;;;3.95;2.60;;;;;;;17.49;59.52;102073.81;5031526;28;20045;-77
2023/09/25 03:46:22;;;;;;;5.75;2.85;;;;;;;17.41;59.57;102085.22;5032302;28;20084;-77
2023/09/25 03:48:47;;;;;;;4.55;2.45;;;;;;;17.47;59.43;102080.84;5032789;28;20032;-76
2023/09/25 03:51:12;;;;;;;6.63;2.80;;;;;;;17.39;59.48;102091.34;5033440;28;20045;-76
2023/09/25 03:53:47;;;;;;;5.18;2.70;;;;;;;17.51;59.43;102088.75;5032312;28;20045;-77
2023/09/25 03:56:15;;;;;;;;;;;;;;;17.45;59.55;102096.63;5033009;28;20446;-76
2023/09/25 03:58:46;;;;;;;4.18;2.70;;;;;;;17.49;59.25;102100.19;5032078;28;19959;-76
2023/09/25 04:01:12;;;;;;;4.38;2.40;;;;;;;17.40;59.68;102095.75;5033975;28;20087;-74
2023/09/25 04:03:37;;;;;;;5.38;2.40;;;;;;;17.37;59.80;102106.28;5033183;28;20037;-75
2023/09/25 04:06:03;;;;;;;4.18;2.70;;;;;;;17.40;59.89;102095.75;5033860;28;20041;-77
2023/09/25 04:08:28;;;;;;;4.75;2.70;;;;;;;17.41;60.00;102101.03;5032702;28;20033;-76
2023/09/25 04:10:53;;;;;;;4.65;2.60;;;;;;;17.40;59.87;102096.63;5033849;28;20051;-77
2023/09/25 04:13:22;;;;;;;4.68;2.58;;;;;;;17.43;59.82;102106.31;5034045;28;20463;-77
2023/09/25 04:15:50;;;;;;;6.32;2.47;;;;;;;17.40;59.92;102108.91;5034228;28;20099;-77
2023/09/25 04:18:18;;;;;;;5.57;2.60;;;;;;;17.26;60.23;102100.09;5033422;28;20069;-77
2023/09/25 04:20:43;;;;;;;5.63;2.58;;;;;;;17.21;60.70;102104.41;5031923;28;20033;-76
2023/09/25 04:23:09;;;;;;;3.78;2.25;;;;;;;17.37;60.21;102101.91;5033771;28;20040;-76
2023/09/25 04:25:41;;;;;;;5.65;2.78;;;;;;;17.35;60.44;102100.13;5033235;28;20043;-75
2023/09/25 04:28:06;;;;;;;5.25;2.80;;;;;;;17.40;60.06;102101.91;5033939;28;20030;-76
2023/09/25 04:30:38;;;;;;;5.47;2.70;;;;;;;17.30;60.48;102096.59;5033092;28;20041;-77
2023/09/25 04:33:04;;;;;;;5.93;2.50;;;;;;;17.27;60.16;102102.69;5033787;28;20080;-74
2023/09/25 04:35:32;;;;;;;7.78;2.75;;;;;;;17.42;59.82;102102.81;5033022;28;20045;-74
2023/09/25 04:38:03;;;;;;;5.57;2.50;;;;;;;17.42;59.98;102107.19;5033224;28;20056;-77
2023/09/25 04:40:31;;;;;;;4.85;2.88;;;;;;;17.35;60.00;102110.66;5032503;28;20037;-76
2023/09/25 04:42:57;;;;;;;4.55;2.67;;;;;;;17.41;60.02;102113.31;5033162;28;20080;-77
2023/09/25 04:45:23;;;;;;;4.63;2.50;;;;;;;17.37;60.04;102109.81;5032852;28;20034;-77
2023/09/25 04:47:52;;;;;;;6.68;2.80;;;;;;;17.43;59.64;102109.84;5033034;28;20038;-77
2023/09/25 04:50:19;;;;;;;6.90;2.65;;;;;;;17.26;60.52;102116.75;5032961;28;20033;-76
2023/09/25 04:52:48;;;;;;;4.57;2.95;;;;;;;17.43;59.96;102120.38;5032349;28;20600;-74
2023/09/25 04:55:16;;;;;;;10.30;2.85;;;;;;;17.15;60.85;102120.19;5032898;28;20073;-75
2023/09/25 04:57:43;;;;;;;4.47;2.40;;;;;;;17.29;60.64;102108.00;5032420;28;20049;-77
2023/09/25 05:02:39;;;;;;;5.20;2.88;;;;;;;17.28;60.56;102120.28;5032052;28;20041;-74
2023/09/25 05:05:05;;;;;;;4.22;2.60;;;;;;;17.31;60.61;102114.16;5033199;28;20614;-77
2023/09/25 05:07:30;;;;;;;4.32;2.60;;;;;;;17.32;60.49;102114.16;5033111;28;20037;-75
2023/09/25 05:10:04;;;;;;;4.50;2.53;;;;;;;17.28;60.81;102111.50;5032607;28;20070;-75
2023/09/25 05:12:29;;;;;;;4.93;2.70;;;;;;;17.27;60.68;102113.25;5032246;28;20336;-74
2023/09/25 05:14:55;;;;;;;4.45;2.35;;;;;;;17.34;60.69;102116.81;5033078;28;20033;-74
2023/09/25 05:17:21;;;;;;;5.43;2.55;;;;;;;17.31;60.57;102119.44;5032816;28;20092;-77
2023/09/25 05:19:46;;;;;;;6.65;2.50;;;;;;;17.16;61.17;102121.97;5029931;28;20030;-77
2023/09/25 05:22:14;;;;;;;7.82;2.83;;;;;;;17.32;60.84;102123.84;5032416;28;20040;-76
2023/09/25 05:24:42;;;;;;;8.35;2.70;;;;;;;17.33;60.71;102121.19;5031783;28;20056;-76
2023/09/25 05:27:08;;;;;;;4.88;2.67;;;;;;;17.26;60.97;102126.44;5032161;28;20087;-76
2023/09/25 05:29:34;;;;;;;4.97;2.55;;;;;;;17.22;61.00;102125.53;5031522;28;20684;-76
2023/09/25 05:31:59;;;;;;;5.38;2.50;;;;;;;17.29;60.72;102131.72;5030589;28;20665;-76
2023/09/25 05:34:25;;;;;;;6.00;2.60;;;;;;;17.37;60.19;102141.44;5031703;28;20021;-76
2023/09/25 05:36:53;;;;;;;5.13;2.72;;;;;;;17.30;60.20;102139.63;5032291;28;20099;-76
2023/09/25 05:39:25;;;;;;;4.28;2.58;;;;;;;17.37;60.07;102135.28;5031757;28;20039;-76
2023/09/25 05:41:50;;;;;;;4.00;2.47;;;;;;;17.38;59.85;102143.19;5030972;28;20037;-76
2023/09/25 05:44:22;;;;;;;5.38;2.90;;;;;;;17.28;60.28;102138.75;5031011;28;20044;-76
2023/09/25 05:46:53;;;;;;;5.25;2.92;;;;;;;17.36;60.31;102144.06;5030533;28;20574;-76
2023/09/25 05:49:21;;;;;;;4.78;2.72;;;;;;;17.37;59.80;102140.56;5030634;28;20621;-76
2023/09/25 05:51:53;;;;;;;5.25;2.65;;;;;;;17.44;59.96;102142.34;5030229;28;20087;-76
2023/09/25 05:54:20;;;;;;;5.57;2.72;;;;;;;17.43;60.38;102138.84;5030996;28;20041;-77
2023/09/25 05:56:45;;;;;;;4.53;2.90;;;;;;;17.48;60.14;102132.69;5030659;28;20144;-77
2023/09/25 05:59:15;;;;;;;5.93;2.70;;;;;;;17.33;60.50;102134.38;5030998;28;20029;-77
2023/09/25 06:01:46;;;;;;;9.18;3.10;;;;;;;17.45;60.23;102134.44;5030435;28;20044;-76
2023/09/25 06:04:24;;;;;;;4.57;2.80;;;;;;;17.50;60.22;102128.31;5030684;28;20068;-76
2023/09/25 06:06:52;;;;;;;4.25;2.80;;;;;;;17.51;59.63;102135.34;5030764;28;20041;-76
2023/09/25 06:09:23;;;;;;;7.95;3.30;;;;;;;17.35;60.20;102132.63;5031525;28;20499;-75
2023/09/25 06:11:49;;;;;;;5.53;3.00;;;;;;;17.54;59.54;102141.53;5030665;28;20039;-75
2023/09/25 06:14:14;;;;;;;5.60;2.92;;;;;;;17.70;59.18;102139.84;5030944;28;20116;-76
2023/09/25 06:16:43;;;;;;;5.18;2.80;;;;;;;17.68;59.42;102147.78;5030282;28;20034;-76
2023/09/25 06:19:08;;;;;;;5.40;2.78;;;;;;;17.76;59.14;102143.41;5030738;28;20486;-75
2023/09/25 06:21:36;;;;;;;5.25;3.13;;;;;;;17.84;58.91;102151.34;5030428;28;20083;-75
2023/09/25 06:24:03;;;;;;;6.60;3.00;;;;;;;17.93;58.66;102145.25;5030837;28;20064;-76
2023/09/25 06:26:29;;;;;;;5.80;3.00;;;;;;;17.97;58.74;102154.91;5030492;28;20029;-76
2023/09/25 06:28:54;;;;;;;5.28;2.78;;;;;;;18.01;58.54;102161.97;5030610;28;20033;-75
2023/09/25 06:31:21;;;;;;;5.57;2.90;;;;;;;17.84;58.57;102168.06;5030458;28;20033;-75
2023/09/25 06:33:53;;;;;;;5.35;2.90;;;;;;;18.08;58.06;102163.75;5029759;28;20034;-76
2023/09/25 06:36:19;;;;;;;5.07;2.97;;;;;;;18.22;57.81;102168.19;5030304;28;20029;-75
2023/09/25 06:38:47;;;;;;;6.80;3.22;;;;;;;18.24;57.75;102171.69;5029901;28;20453;-75
2023/09/25 06:41:16;;;;;;;6.60;2.80;;;;;;;18.40;57.68;102171.75;5030618;28;20048;-75
2023/09/25 06:43:51;;;;;;;6.63;2.85;;;;;;;18.39;57.18;102172.63;5030507;28;20080;-76
2023/09/25 06:46:23;;;;;;;5.82;2.88;;;;;;;18.55;57.13;102167.38;5034177;28;20479;-76
2023/09/25 06:48:50;;;;;;;7.97;2.97;;;;;;;18.67;56.99;102161.22;5033628;28;20056;-77
2023/09/25 06:51:16;;;;;;;6.18;2.80;;;;;;;18.86;56.62;102165.66;5033825;28;20593;-76
2023/09/25 06:53:45;;;;;;;6.70;2.75;;;;;;;18.89;56.30;102167.41;5031620;28;20372;-76
2023/09/25 06:56:16;;;;;;;4.18;2.70;;;;;;;19.05;55.98;102163.88;5035419;28;20569;-76
2023/09/25 06:58:53;;;;;;;5.90;3.00;;;;;;;18.92;55.68;102168.28;5033325;28;20080;-76
2023/09/25 07:01:23;;;;;;;5.68;2.85;;;;;;;19.03;55.54;102169.16;5033454;28;20034;-76
2023/09/25 07:03:51;;;;;;;4.97;2.70;;;;;;;19.25;55.38;102166.50;5033731;28;20495;-77
2023/09/25 07:06:26;;;;;;;11.18;3.78;;;;;;;19.17;54.91;102174.44;5032359;28;20038;-76
2023/09/25 07:08:54;;;;;;;5.38;2.78;;;;;;;18.96;54.79;102167.44;5032913;28;20042;-77
2023/09/25 07:11:20;;;;;;;9.38;2.75;;;;;;;19.26;54.05;102161.22;5033479;28;20067;-77
2023/09/25 07:13:45;;;;;;;6.07;3.00;;;;;;;19.33;53.58;102162.94;5033568;28;20037;-77
2023/09/25 07:16:14;;;;;;;6.75;2.75;;;;;;;19.41;53.25;102161.16;5032450;28;20040;-76
2023/09/25 07:18:39;;;;;;;4.72;2.47;;;;;;;19.54;53.35;102163.81;5033156;28;20045;-76
2023/09/25 07:21:05;;;;;;;6.68;2.80;;;;;;;19.64;52.85;102165.56;5033669;28;20060;-77
2023/09/25 07:23:31;;;;;;;5.90;2.67;;;;;;;19.35;53.24;102169.09;5032641;28;20033;-76
2023/09/25 07:26:07;;;;;;;4.95;2.63;;;;;;;19.51;52.91;102170.00;5033332;28;20115;-76
2023/09/25 07:28:33;;;;;;;8.68;2.50;;;;;;;19.76;52.50;102165.50;5032902;28;20569;-77
2023/09/25 07:31:02;;;;;;;5.30;2.50;;;;;;;19.65;52.66;102165.53;5033561;28;20037;-76
2023/09/25 07:33:29;;;;;;;6.25;2.88;;;;;;;19.82;52.56;102155.75;5032434;28;20033;-76
2023/09/25 07:36:06;;;;;;;5.68;2.30;;;;;;;20.01;51.59;102160.94;5034242;28;20038;-75
2023/09/25 07:38:38;;;;;;;5.63;2.88;;;;;;;19.88;52.01;102160.16;5033725;28;20045;-76
2023/09/25 07:41:12;;;;;;;4.60;2.50;;;;;;;19.98;52.31;102156.56;5032569;28;20091;-76
2023/09/25 07:43:43;;;;;;;6.05;2.83;;;;;;;19.75;52.42;102147.88;5033131;28;20510;-76
2023/09/25 07:46:08;;;;;;;6.93;2.65;;;;;;;19.56;53.40;102146.19;5033907;28;20495;-76
2023/09/25 07:48:58;;;;;;;8.68;2.60;;;;;;;19.82;52.20;102144.31;5032563;28;20037;-76
2023/09/25 07:51:29;;;;;;;7.65;2.85;;;;;;;19.73;52.57;102139.94;5036841;28;20128;-77
2023/09/25 07:53:58;;;;;;;4.72;2.50;;;;;;;20.12;51.68;102140.63;5034258;28;20170;-77
2023/09/25 07:56:26;;;;;;;4.55;2.35;;;;;;;20.16;51.62;102142.34;5035110;28;20033;-77
2023/09/25 07:59:03;;;;;;;5.85;2.80;;;;;;;20.06;51.57;102149.47;5036010;28;20044;-77
2023/09/25 08:01:32;;;;;;;5.85;3.05;;;;;;;19.78;52.19;102158.41;5032000;28;20030;-76
2023/09/25 08:03:58;;;;;;;5.53;2.70;;;;;;;19.96;52.31;102147.75;5034600;28;20038;-77
2023/09/25 08:06:27;;;;;;;7.13;2.55;;;;;;;20.18;51.82;102153.81;5033621;28;20052;-77
2023/09/25 08:08:54;;;;;;;8.13;2.95;;;;;;;20.30;51.44;102147.56;5033845;28;20037;-77
2023/09/25 08:11:19;;;;;;;5.22;2.70;;;;;;;20.33;51.05;102150.22;5033611;28;20040;-77
2023/09/25 08:13:44;;;;;;;4.47;2.67;;;;;;;20.25;51.40;102153.75;5033105;28;20037;-77
2023/09/25 08:16:10;;;;;;;4.53;2.72;;;;;;;20.43;51.63;102151.94;5032129;28;20030;-77
2023/09/25 08:18:35;;;;;;;6.20;2.60;;;;;;;20.50;51.01;102151.84;5032779;28;20042;-76
2023/09/25 08:21:01;;;;;;;6.30;2.80;;;;;;;20.41;51.32;102166.94;5033590;28;20036;-77
2023/09/25 08:23:28;;;;;;;5.18;2.78;;;;;;;20.59;51.41;102158.88;5033448;28;20034;-77
2023/09/25 08:26:05;;;;;;;4.63;2.80;;;;;;;20.75;50.76;102164.91;5033874;28;20029;-77
2023/09/25 08:28:31;;;;;;;4.93;2.78;;;;;;;20.74;51.11;102158.72;5034234;28;20029;-77
2023/09/25 08:30:56;;;;;;;7.95;2.83;;;;;;;20.73;51.03;102166.72;5034354;28;20033;-76
2023/09/25 08:33:22;;;;;;;6.22;2.92;;;;;;;20.60;51.12;102177.41;5032972;28;20076;-78
2023/09/25 08:35:48;;;;;;;5.60;2.90;;;;;;;20.73;51.44;102172.03;5034237;28;20109;-76
2023/09/25 08:38:19;;;;;;;12.13;3.20;;;;;;;20.81;50.83;102181.66;5033947;28;20099;-76
2023/09/25 08:40:51;;;;;;;8.80;2.67;;;;;;;20.81;51.69;102172.81;5034179;28;20034;-76
2023/09/25 08:43:17;;;;;;;5.03;2.90;;;;;;;20.81;50.78;102179.00;5034289;28;20112;-76
2023/09/25 08:45:43;;;;;;;4.38;2.72;;;;;;;20.84;51.11;102178.09;5031471;28;20172;-76
2023/09/25 08:48:10;;;;;;;9.45;3.20;;;;;;;20.63;51.45;102185.31;5031833;28;20095;-78
2023/09/25 08:50:39;;;;;;;7.03;2.90;;;;;;;20.67;51.51;102176.44;5030820;28;20041;-78
2023/09/25 08:53:14;;;;;;;6.43;2.72;;;;;;;20.93;51.09;102167.41;5031257;28;20033;-78
2023/09/25 08:55:42;;;;;;;6.40;3.00;;;;;;;20.69;52.46;102178.22;5031048;28;20129;-78
2023/09/25 08:58:08;;;;;;;6.20;2.95;;;;;;;20.66;52.31;102179.13;5032715;28;20029;-77
2023/09/25 09:00:40;;;;;;;7.25;2.90;;;;;;;21.11;51.06;102184.91;5032067;28;20033;-77
2023/09/25 09:03:06;;;;;;;6.70;2.63;;;;;;;21.17;51.16;102182.25;5032723;28;20041;-77
2023/09/25 09:05:34;;;;;;;8.55;2.95;;;;;;;21.19;51.29;102180.47;5032555;28;20415;-77
2023/09/25 09:08:01;;;;;;;7.50;2.70;;;;;;;21.27;51.13;102186.59;5032097;28;20487;-75
2023/09/25 09:10:37;;;;;;;8.38;2.88;;;;;;;21.43;50.80;102185.53;5031888;28;20030;-77
2023/09/25 09:13:08;;;;;;;5.43;2.95;;;;;;;21.36;50.69;102179.41;5032408;28;20041;-78
2023/09/25 09:15:38;;;;;;;6.65;2.72;;;;;;;21.61;50.03;102187.09;5031975;28;20125;-78
2023/09/25 09:18:24;;;;;;;9.27;2.70;;;;;;;21.94;49.37;102178.75;5031819;28;20045;-77
2023/09/25 09:20:49;;;;;;;4.53;2.63;;;;;;;22.04;49.38;102184.81;5030955;28;20491;-77
2023/09/25 09:23:38;;;;;;;6.10;2.80;;;;;;;22.19;49.24;102188.16;5031429;28;20033;-77
2023/09/25 09:26:14;;;;;;;6.18;3.08;;;;;;;21.72;50.00;102191.38;5031732;28;20458;-77
2023/09/25 09:28:43;;;;;;;6.45;2.65;;;;;;;22.16;49.68;102204.13;5030939;28;20056;-77
2023/09/25 09:31:17;;;;;;;9.70;2.50;;;;;;;21.92;48.95;102192.91;5030788;28;20035;-77
2023/09/25 09:33:43;;;;;;;8.05;2.80;;;;;;;22.21;49.23;102198.75;5030551;28;20140;-77
2023/09/25 09:36:13;;;;;;;7.18;2.78;;;;;;;21.65;50.50;102205.59;5030775;28;20036;-75
2023/09/25 09:38:43;;;;;;;4.30;2.65;;;;;;;22.17;49.63;102195.28;5029835;28;20041;-77
2023/09/25 09:41:09;;;;;;;5.22;2.80;;;;;;;22.53;49.51;102192.97;5031060;28;20482;-77
2023/09/25 09:43:37;;;;;;;5.15;2.47;;;;;;;22.75;48.23;102189.09;5030045;28;20123;-77
2023/09/25 09:46:03;;;;;;;4.88;2.50;;;;;;;22.83;48.45;102192.53;5030422;28;20557;-77
2023/09/25 09:48:31;;;;;;;5.78;2.47;;;;;;;22.88;48.47;102195.97;5030011;28;20057;-77
2023/09/25 09:51:03;;;;;;;8.20;2.95;;;;;;;22.96;48.05;102196.75;5031831;28;20075;-77
2023/09/25 09:53:33;;;;;;;4.65;2.60;;;;;;;22.58;48.87;102197.31;5030646;28;20044;-77
2023/09/25 09:55:59;;;;;;;5.75;2.67;;;;;;;22.51;49.07;102185.03;5030956;28;20421;-76
2023/09/25 09:58:28;;;;;;;8.77;2.78;;;;;;;22.46;49.44;102192.19;5030102;28;20029;-76
2023/09/25 10:00:55;;;;;;;5.82;2.80;;;;;;;22.57;49.36;102190.25;5030691;28;20034;-76
2023/09/25 10:03:21;;;;;;;4.68;2.58;;;;;;;22.63;49.12;102192.81;5030766;28;20072;-76
2023/09/25 10:05:51;;;;;;;6.20;2.83;;;;;;;22.83;49.32;102199.63;5031387;28;20037;-76
2023/09/25 10:08:17;;;;;;;8.32;3.33;;;;;;;22.87;48.72;102194.22;5032245;28;20049;-75
2023/09/25 10:10:51;;;;;;;5.40;2.60;;;;;;;23.08;49.39;102200.97;5030626;28;20030;-75
2023/09/25 10:13:21;;;;;;;6.10;2.67;;;;;;;22.97;49.57;102201.16;5032396;28;20750;-75
2023/09/25 10:15:57;;;;;;;4.55;2.50;;;;;;;23.25;49.12;102190.91;5036621;23;20067;-45
2023/09/25 10:18:26;;;;;;;10.32;2.80;;;;;;;23.38;48.78;102192.44;5029693;28;20033;-49
2023/09/25 10:21:00;;;;;;;6.15;2.60;;;;;;;23.75;47.66;102186.44;5029665;28;20375;-44
2023/09/25 10:23:25;;;;;;;6.97;2.58;;;;;;;23.91;47.76;102174.53;5027683;28;20029;-46
2023/09/25 10:26:02;;;;;;;8.27;2.72;;;;;;;23.58;48.13;102180.56;5029669;28;20405;-43
2023/09/25 10:28:38;;;;;;;9.30;2.72;;;;;;;23.60;48.61;102192.06;5029167;28;20053;-44
2023/09/25 10:31:19;;;;;;;6.93;2.80;;;;;;;23.42;48.68;102194.13;5029170;28;20053;-47
2023/09/25 10:34:04;;;;;;;5.75;2.90;;;;;;;23.18;49.67;102194.56;5028887;28;20050;-44
2023/09/25 10:36:39;;;;;;;5.32;2.78;;;;;;;23.26;50.25;102190.00;5029144;28;20033;-46
2023/09/25 10:39:07;;;;;;;5.15;2.60;;;;;;;23.26;50.60;102182.03;5029026;28;20033;-44
2023/09/25 10:41:32;;;;;;;8.00;2.58;;;;;;;23.57;49.20;102187.69;5028231;28;20480;-44
2023/09/25 10:43:58;;;;;;;5.65;2.70;;;;;;;22.94;51.74;102192.34;5029217;28;20112;-40
2023/09/25 10:46:24;;;;;;;8.48;2.80;;;;;;;23.54;50.10;102190.41;5028556;28;20668;-42
2023/09/25 10:48:49;;;;;;;5.72;2.67;;;;;;;23.44;50.23;102200.31;5028132;28;20038;-42
2023/09/25 10:51:15;;;;;;;7.78;2.88;;;;;;;23.64;50.10;102197.31;5029397;28;20353;-40
2023/09/25 10:53:41;;;;;;;7.28;2.53;;;;;;;24.19;48.80;102197.06;5028783;28;20069;-41
2023/09/25 10:56:06;;;;;;;7.82;2.70;;;;;;;24.68;47.63;102203.91;5029094;28;20451;-44
2023/09/25 10:58:31;;;;;;;5.60;2.80;;;;;;;24.73;47.08;102202.00;5028531;28;20044;-43
2023/09/25 11:00:58;;;;;;;8.00;2.65;;;;;;;25.17;46.13;102202.72;5028961;28;20495;-42
2023/09/25 11:03:24;;;;;;;7.03;2.80;;;;;;;25.39;45.30;102203.88;5027325;28;20038;-42
2023/09/25 11:05:49;;;;;;;5.32;2.42;;;;;;;25.27;45.77;102204.22;5029174;28;20401;-43
2023/09/25 11:08:16;;;;;;;5.18;2.58;;;;;;;25.38;45.91;102203.00;5029016;28;20033;-46
2023/09/25 11:10:43;;;;;;;4.55;2.70;;;;;;;25.56;45.68;102203.41;5028282;28;20037;-44
2023/09/25 11:13:09;;;;;;;5.10;2.70;;;;;;;25.82;44.61;102212.50;5029042;28;20124;-42
2023/09/25 11:15:36;;;;;;;4.93;2.60;;;;;;;25.55;45.75;102215.03;5028416;28;20037;-44
2023/09/25 11:18:02;;;;;;;7.03;2.78;;;;;;;25.69;45.08;102216.44;5028879;28;20049;-44
2023/09/25 11:20:30;;;;;;;7.45;2.50;;;;;;;25.06;47.36;102216.34;5028216;28;20040;-47
2023/09/25 11:23:17;;;;;;;6.85;2.70;;;;;;;25.00;46.76;102217.38;5029078;28;20033;-45
2023/09/25 11:25:43;;;;;;;4.32;2.47;;;;;;;24.81;49.10;102228.50;5028372;28;20614;-42
2023/09/25 11:28:16;;;;;;;8.57;2.85;;;;;;;24.38;50.15;102231.28;5028859;28;20060;-44
2023/09/25 11:30:45;;;;;;;8.57;2.95;;;;;;;24.06;51.14;102232.84;5030786;28;20033;-45
2023/09/25 11:33:12;;;;;;;7.55;2.80;;;;;;;24.17;51.02;102229.94;5033609;28;20088;-42